KTRI/TRI METAR and TAF weather

Enter ICAO airport designator
Station Type Date Time Source
KTRI METAR 2020/02/16 19:53 UTC NOAA

KTRI 161953Z 24016KT 10SM SCT100 BKN140 13/M01 A3008 RMK AO2 SLP180 T01281011


Station Type Date Time Source
KTRI Decoded METAR 2020/02/16 19:53 UTC NOAA

TRI-CITY REGIONAL AIRPORT, TN, United States (KTRI) 36-28N 082-24W 474M
Feb 16, 2020 - 02:53 PM EST / 2020.02.16 1953 UTC
Wind: from the WSW (240 degrees) at 18 MPH (16 KT):0
Visibility: 10 mile(s):0
Sky conditions: mostly cloudy
Temperature: 55.0 F (12.8 C)
Dew Point: 30.0 F (-1.1 C)
Relative Humidity: 38%
Pressure (altimeter): 30.08 in. Hg (1018 hPa)
ob: KTRI 161953Z 24016KT 10SM SCT100 BKN140 13/M01 A3008 RMK AO2 SLP180 T01281011
cycle: 20

Station Type Date Time Source
KTRI TAF 2020/02/16 20:06 UTC NOAA

TAF
AMD KTRI 162005Z 1620/1718 24010KT P6SM BKN100
FM170200 26004KT P6SM BKN045
FM170400 00000KT P6SM SCT025 BKN050
FM171500 VRB03KT P6SM SCT200

Example: see airport list